sensor_id;sensor_type;location;lat;lon;timestamp;pressure;altitude;pressure_sealevel;temperature;humidity
45040;BME280;30778;53.574;7.770;2024-03-25T00:00:14;100320.31;;;3.01;57.03
45040;BME280;30778;53.574;7.770;2024-03-25T00:02:41;100318.47;;;3.08;56.96
45040;BME280;30778;53.574;7.770;2024-03-25T00:05:07;100331.19;;;3.18;57.02
45040;BME280;30778;53.574;7.770;2024-03-25T00:07:35;100323.28;;;3.29;56.61
45040;BME280;30778;53.574;7.770;2024-03-25T00:10:01;100330.09;;;3.33;56.73
45040;BME280;30778;53.574;7.770;2024-03-25T00:12:26;100330.91;;;3.35;56.29
45040;BME280;30778;53.574;7.770;2024-03-25T00:14:52;100343.22;;;3.19;57.10
45040;BME280;30778;53.574;7.770;2024-03-25T00:17:17;100342.16;;;3.33;56.59
45040;BME280;30778;53.574;7.770;2024-03-25T00:19:45;100337.72;;;3.41;56.61
45040;BME280;30778;53.574;7.770;2024-03-25T00:22:20;100342.41;;;3.17;56.88
45040;BME280;30778;53.574;7.770;2024-03-25T00:24:46;100340.50;;;3.29;56.71
45040;BME280;30778;53.574;7.770;2024-03-25T00:27:13;100340.47;;;3.30;56.45
45040;BME280;30778;53.574;7.770;2024-03-25T00:29:38;100338.44;;;2.98;56.87
45040;BME280;30778;53.574;7.770;2024-03-25T00:32:04;100338.13;;;3.16;56.52
45040;BME280;30778;53.574;7.770;2024-03-25T00:34:31;100340.91;;;3.04;56.39
45040;BME280;30778;53.574;7.770;2024-03-25T00:36:57;100341.72;;;3.06;56.14
45040;BME280;30778;53.574;7.770;2024-03-25T00:39:23;100336.72;;;2.97;56.10
45040;BME280;30778;53.574;7.770;2024-03-25T00:41:51;100342.16;;;2.82;56.09
45040;BME280;30778;53.574;7.770;2024-03-25T00:44:17;100335.97;;;2.90;55.91
45040;BME280;30778;53.574;7.770;2024-03-25T00:46:43;100325.38;;;3.07;55.15
45040;BME280;30778;53.574;7.770;2024-03-25T00:49:09;100333.16;;;3.04;55.36
45040;BME280;30778;53.574;7.770;2024-03-25T00:51:35;100325.81;;;2.81;56.02
45040;BME280;30778;53.574;7.770;2024-03-25T00:54:01;100322.72;;;3.10;55.19
45040;BME280;30778;53.574;7.770;2024-03-25T00:56:26;100324.38;;;3.14;54.55
45040;BME280;30778;53.574;7.770;2024-03-25T00:58:52;100327.22;;;3.01;54.83
45040;BME280;30778;53.574;7.770;2024-03-25T01:01:18;100328.06;;;3.01;55.01
45040;BME280;30778;53.574;7.770;2024-03-25T01:03:43;100332.56;;;2.88;55.06
45040;BME280;30778;53.574;7.770;2024-03-25T01:06:10;100326.47;;;2.94;55.00
45040;BME280;30778;53.574;7.770;2024-03-25T01:08:35;100335.63;;;2.59;55.99
45040;BME280;30778;53.574;7.770;2024-03-25T01:11:03;100335.28;;;2.81;55.62
45040;BME280;30778;53.574;7.770;2024-03-25T01:13:29;100330.66;;;3.00;55.67
45040;BME280;30778;53.574;7.770;2024-03-25T01:15:55;100334.91;;;3.02;55.47
45040;BME280;30778;53.574;7.770;2024-03-25T01:18:21;100328.81;;;3.08;54.95
45040;BME280;30778;53.574;7.770;2024-03-25T01:20:46;100333.16;;;3.04;55.22
45040;BME280;30778;53.574;7.770;2024-03-25T01:23:12;100331.50;;;3.00;55.25
45040;BME280;30778;53.574;7.770;2024-03-25T01:25:37;100340.22;;;2.93;55.93
45040;BME280;30778;53.574;7.770;2024-03-25T01:28:03;100336.06;;;2.84;56.21
45040;BME280;30778;53.574;7.770;2024-03-25T01:30:29;100343.81;;;2.86;56.00
45040;BME280;30778;53.574;7.770;2024-03-25T01:32:55;100330.16;;;2.77;56.28
45040;BME280;30778;53.574;7.770;2024-03-25T01:35:20;100332.88;;;2.68;56.56
45040;BME280;30778;53.574;7.770;2024-03-25T01:37:46;100339.03;;;2.60;56.63
45040;BME280;30778;53.574;7.770;2024-03-25T01:40:12;100342.50;;;2.60;56.28
45040;BME280;30778;53.574;7.770;2024-03-25T01:42:37;100339.31;;;2.43;56.68
45040;BME280;30778;53.574;7.770;2024-03-25T01:45:04;100345.00;;;2.65;56.45
45040;BME280;30778;53.574;7.770;2024-03-25T01:47:33;100344.88;;;2.74;56.15
45040;BME280;30778;53.574;7.770;2024-03-25T01:50:01;100359.44;;;2.76;55.39
45040;BME280;30778;53.574;7.770;2024-03-25T01:52:29;100343.94;;;2.76;55.17
45040;BME280;30778;53.574;7.770;2024-03-25T01:54:55;100350.09;;;2.68;55.03
45040;BME280;30778;53.574;7.770;2024-03-25T01:57:22;100355.13;;;2.18;56.95
45040;BME280;30778;53.574;7.770;2024-03-25T01:59:47;100350.44;;;2.46;56.50
45040;BME280;30778;53.574;7.770;2024-03-25T02:02:13;100351.03;;;2.62;55.89
45040;BME280;30778;53.574;7.770;2024-03-25T02:04:40;100359.53;;;2.69;56.04
45040;BME280;30778;53.574;7.770;2024-03-25T02:07:08;100364.69;;;2.70;56.10
45040;BME280;30778;53.574;7.770;2024-03-25T02:09:35;100364.50;;;2.83;55.96
45040;BME280;30778;53.574;7.770;2024-03-25T02:12:01;100365.44;;;2.79;55.90
45040;BME280;30778;53.574;7.770;2024-03-25T02:14:29;100361.00;;;2.87;55.91
45040;BME280;30778;53.574;7.770;2024-03-25T02:16:55;100368.59;;;2.96;55.98
45040;BME280;30778;53.574;7.770;2024-03-25T02:19:22;100367.81;;;2.91;55.94
45040;BME280;30778;53.574;7.770;2024-03-25T02:21:49;100380.00;;;2.83;56.33
45040;BME280;30778;53.574;7.770;2024-03-25T02:24:15;100375.44;;;2.41;57.41
45040;BME280;30778;53.574;7.770;2024-03-25T02:26:44;100387.31;;;2.53;57.18
45040;BME280;30778;53.574;7.770;2024-03-25T02:29:10;100378.19;;;2.88;56.41
45040;BME280;30778;53.574;7.770;2024-03-25T02:31:35;100384.09;;;2.96;55.89
45040;BME280;30778;53.574;7.770;2024-03-25T02:34:01;100386.00;;;2.85;56.13
45040;BME280;30778;53.574;7.770;2024-03-25T02:36:26;100385.00;;;2.92;55.68
45040;BME280;30778;53.574;7.770;2024-03-25T02:38:53;100374.31;;;3.13;55.36
45040;BME280;30778;53.574;7.770;2024-03-25T02:41:19;100375.19;;;3.14;55.48
45040;BME280;30778;53.574;7.770;2024-03-25T02:43:44;100383.00;;;3.09;55.58
45040;BME280;30778;53.574;7.770;2024-03-25T02:46:10;100379.38;;;3.19;55.07
45040;BME280;30778;53.574;7.770;2024-03-25T02:48:35;100383.13;;;3.00;55.64
45040;BME280;30778;53.574;7.770;2024-03-25T02:51:00;100390.72;;;3.11;55.37
45040;BME280;30778;53.574;7.770;2024-03-25T02:53:29;100379.44;;;3.16;55.35
45040;BME280;30778;53.574;7.770;2024-03-25T02:55:54;100388.28;;;3.03;55.89
45040;BME280;30778;53.574;7.770;2024-03-25T02:58:20;100391.94;;;2.90;56.05
45040;BME280;30778;53.574;7.770;2024-03-25T03:00:45;100398.94;;;2.20;57.85
45040;BME280;30778;53.574;7.770;2024-03-25T03:03:11;100405.50;;;2.44;57.54
45040;BME280;30778;53.574;7.770;2024-03-25T03:05:36;100401.25;;;2.40;57.13
45040;BME280;30778;53.574;7.770;2024-03-25T03:08:04;100404.75;;;2.35;57.96
45040;BME280;30778;53.574;7.770;2024-03-25T03:10:32;100401.84;;;2.60;57.56
45040;BME280;30778;53.574;7.770;2024-03-25T03:12:58;100398.44;;;2.56;57.28
45040;BME280;30778;53.574;7.770;2024-03-25T03:15:23;100406.94;;;2.63;56.89
45040;BME280;30778;53.574;7.770;2024-03-25T03:17:49;100395.72;;;2.67;56.20
45040;BME280;30778;53.574;7.770;2024-03-25T03:20:14;100386.81;;;2.87;55.22
45040;BME280;30778;53.574;7.770;2024-03-25T03:22:42;100399.06;;;2.72;55.36
45040;BME280;30778;53.574;7.770;2024-03-25T03:25:08;100381.16;;;2.62;55.00
45040;BME280;30778;53.574;7.770;2024-03-25T03:27:35;100394.88;;;2.67;54.59
45040;BME280;30778;53.574;7.770;2024-03-25T03:30:01;100395.47;;;2.83;54.14
45040;BME280;30778;53.574;7.770;2024-03-25T03:32:26;100397.38;;;2.71;54.07
45040;BME280;30778;53.574;7.770;2024-03-25T03:34:52;100400.38;;;2.42;54.60
45040;BME280;30778;53.574;7.770;2024-03-25T03:37:17;100400.88;;;2.67;53.41
45040;BME280;30778;53.574;7.770;2024-03-25T03:39:42;100401.91;;;2.55;53.54
45040;BME280;30778;53.574;7.770;2024-03-25T03:42:08;100414.84;;;2.51;53.59
45040;BME280;30778;53.574;7.770;2024-03-25T03:44:36;100416.00;;;2.28;53.79
45040;BME280;30778;53.574;7.770;2024-03-25T03:47:01;100420.19;;;2.37;53.98
45040;BME280;30778;53.574;7.770;2024-03-25T03:49:27;100411.63;;;2.35;53.92
45040;BME280;30778;53.574;7.770;2024-03-25T03:51:52;100413.22;;;2.47;53.50
45040;BME280;30778;53.574;7.770;2024-03-25T03:54:18;100410.72;;;2.38;53.49
45040;BME280;30778;53.574;7.770;2024-03-25T03:56:43;100413.22;;;2.47;53.41
45040;BME280;30778;53.574;7.770;2024-03-25T03:59:09;100417.44;;;2.51;52.73
45040;BME280;30778;53.574;7.770;2024-03-25T04:01:34;100414.81;;;2.54;52.40
45040;BME280;30778;53.574;7.770;2024-03-25T04:04:02;100408.25;;;2.31;53.12
45040;BME280;30778;53.574;7.770;2024-03-25T04:06:27;100415.09;;;2.35;52.84
45040;BME280;30778;53.574;7.770;2024-03-25T04:08:52;100417.69;;;2.31;52.87
45040;BME280;30778;53.574;7.770;2024-03-25T04:11:18;100409.03;;;2.37;52.67
45040;BME280;30778;53.574;7.770;2024-03-25T04:13:46;100403.94;;;2.30;52.67
45040;BME280;30778;53.574;7.770;2024-03-25T04:16:11;100413.63;;;2.13;53.31
45040;BME280;30778;53.574;7.770;2024-03-25T04:18:37;100423.25;;;2.00;53.94
45040;BME280;30778;53.574;7.770;2024-03-25T04:21:03;100430.00;;;2.10;53.81
45040;BME280;30778;53.574;7.770;2024-03-25T04:23:29;100440.81;;;2.39;53.17
45040;BME280;30778;53.574;7.770;2024-03-25T04:25:55;100434.69;;;2.46;52.95
45040;BME280;30778;53.574;7.770;2024-03-25T04:28:20;100438.91;;;2.53;52.98
45040;BME280;30778;53.574;7.770;2024-03-25T04:30:51;100438.88;;;2.56;53.22
45040;BME280;30778;53.574;7.770;2024-03-25T04:33:17;100437.06;;;2.61;52.97
45040;BME280;30778;53.574;7.770;2024-03-25T04:35:45;100435.41;;;2.57;52.78
45040;BME280;30778;53.574;7.770;2024-03-25T04:38:10;100442.44;;;2.49;52.98
45040;BME280;30778;53.574;7.770;2024-03-25T04:40:36;100432.19;;;2.40;52.10
45040;BME280;30778;53.574;7.770;2024-03-25T04:43:02;100442.09;;;2.70;50.69
45040;BME280;30778;53.574;7.770;2024-03-25T04:45:27;100449.81;;;2.73;50.20
45040;BME280;30778;53.574;7.770;2024-03-25T04:47:53;100440.19;;;2.85;50.27
45040;BME280;30778;53.574;7.770;2024-03-25T04:50:18;100443.28;;;3.07;49.48
45040;BME280;30778;53.574;7.770;2024-03-25T04:52:44;100450.22;;;3.05;49.47
45040;BME280;30778;53.574;7.770;2024-03-25T04:55:09;100457.97;;;3.05;48.42
45040;BME280;30778;53.574;7.770;2024-03-25T04:57:35;100457.06;;;3.07;48.55
45040;BME280;30778;53.574;7.770;2024-03-25T05:00:01;100453.13;;;2.82;48.10
45040;BME280;30778;53.574;7.770;2024-03-25T05:02:27;100457.56;;;2.73;47.56
45040;BME280;30778;53.574;7.770;2024-03-25T05:04:55;100462.38;;;2.96;47.25
45040;BME280;30778;53.574;7.770;2024-03-25T05:07:20;100468.66;;;2.80;46.73
45040;BME280;30778;53.574;7.770;2024-03-25T05:09:46;100474.59;;;2.85;46.59
45040;BME280;30778;53.574;7.770;2024-03-25T05:12:11;100466.50;;;2.48;46.34
45040;BME280;30778;53.574;7.770;2024-03-25T05:14:36;100470.44;;;2.75;46.31
45040;BME280;30778;53.574;7.770;2024-03-25T05:17:02;100467.53;;;2.98;45.63
45040;BME280;30778;53.574;7.770;2024-03-25T05:19:30;100480.47;;;2.96;45.72
45040;BME280;30778;53.574;7.770;2024-03-25T05:21:56;100470.53;;;3.25;45.50
45040;BME280;30778;53.574;7.770;2024-03-25T05:24:21;100477.44;;;3.26;46.19
45040;BME280;30778;53.574;7.770;2024-03-25T05:26:47;100484.38;;;3.22;46.68
45040;BME280;30778;53.574;7.770;2024-03-25T05:29:12;100482.75;;;3.16;46.79
45040;BME280;30778;53.574;7.770;2024-03-25T05:31:39;100495.75;;;3.10;46.93
45040;BME280;30778;53.574;7.770;2024-03-25T05:34:04;100496.78;;;2.97;47.17
45040;BME280;30778;53.574;7.770;2024-03-25T05:36:33;100496.44;;;3.22;46.96
45040;BME280;30778;53.574;7.770;2024-03-25T05:38:59;100494.41;;;2.85;47.55
45040;BME280;30778;53.574;7.770;2024-03-25T05:41:25;100500.69;;;2.65;48.42
45040;BME280;30778;53.574;7.770;2024-03-25T05:43:50;100507.28;;;2.86;48.65
45040;BME280;30778;53.574;7.770;2024-03-25T05:46:16;100508.66;;;3.10;48.85
45040;BME280;30778;53.574;7.770;2024-03-25T05:48:41;100509.56;;;3.06;49.48
45040;BME280;30778;53.574;7.770;2024-03-25T05:51:07;100498.94;;;3.25;48.90
45040;BME280;30778;53.574;7.770;2024-03-25T05:53:35;100495.34;;;3.38;48.94
45040;BME280;30778;53.574;7.770;2024-03-25T05:56:03;100494.56;;;3.33;49.02
45040;BME280;30778;53.574;7.770;2024-03-25T05:58:29;100493.50;;;3.45;49.01
45040;BME280;30778;53.574;7.770;2024-03-25T06:00:54;100499.63;;;3.39;48.82
45040;BME280;30778;53.574;7.770;2024-03-25T06:03:20;100505.56;;;3.44;48.82
45040;BME280;30778;53.574;7.770;2024-03-25T06:05:46;100503.13;;;3.36;48.78
45040;BME280;30778;53.574;7.770;2024-03-25T06:08:11;100505.50;;;3.49;48.77
45040;BME280;30778;53.574;7.770;2024-03-25T06:10:52;100501.47;;;4.29;48.42
45040;BME280;30778;53.574;7.770;2024-03-25T06:13:19;100501.78;;;4.12;47.15
45040;BME280;30778;53.574;7.770;2024-03-25T06:15:45;100496.06;;;5.20;45.07
45040;BME280;30778;53.574;7.770;2024-03-25T06:18:13;100497.25;;;5.43;44.15
45040;BME280;30778;53.574;7.770;2024-03-25T06:20:39;100498.34;;;6.34;43.53
45040;BME280;30778;53.574;7.770;2024-03-25T06:23:04;100500.44;;;8.14;40.14
45040;BME280;30778;53.574;7.770;2024-03-25T06:25:30;100493.03;;;7.78;39.52
45040;BME280;30778;53.574;7.770;2024-03-25T06:27:58;100498.03;;;6.75;42.49
45040;BME280;30778;53.574;7.770;2024-03-25T06:30:23;100504.06;;;5.81;43.75
45040;BME280;30778;53.574;7.770;2024-03-25T06:33:08;100508.47;;;5.43;44.61
45040;BME280;30778;53.574;7.770;2024-03-25T06:35:52;100511.91;;;5.08;45.99
45040;BME280;30778;53.574;7.770;2024-03-25T06:38:17;100515.78;;;5.96;44.64
45040;BME280;30778;53.574;7.770;2024-03-25T06:40:45;100511.47;;;5.62;44.06
45040;BME280;30778;53.574;7.770;2024-03-25T06:43:10;100510.53;;;7.73;40.98
45040;BME280;30778;53.574;7.770;2024-03-25T06:45:36;100513.31;;;10.17;36.95
45040;BME280;30778;53.574;7.770;2024-03-25T06:48:01;100515.06;;;12.00;33.68
45040;BME280;30778;53.574;7.770;2024-03-25T06:50:27;100519.59;;;13.42;30.77
45040;BME280;30778;53.574;7.770;2024-03-25T06:52:53;100520.81;;;14.26;30.33
45040;BME280;30778;53.574;7.770;2024-03-25T06:55:18;100529.06;;;12.34;31.37
45040;BME280;30778;53.574;7.770;2024-03-25T06:57:48;100528.97;;;9.54;35.97
45040;BME280;30778;53.574;7.770;2024-03-25T07:00:14;100542.16;;;8.12;38.35
45040;BME280;30778;53.574;7.770;2024-03-25T07:02:40;100540.19;;;7.12;40.78
45040;BME280;30778;53.574;7.770;2024-03-25T07:05:07;100549.72;;;6.54;41.89
45040;BME280;30778;53.574;7.770;2024-03-25T07:07:33;100550.66;;;5.50;44.00
45040;BME280;30778;53.574;7.770;2024-03-25T07:10:02;100556.25;;;5.33;44.25
45040;BME280;30778;53.574;7.770;2024-03-25T07:12:27;100556.56;;;4.77;46.57
45040;BME280;30778;53.574;7.770;2024-03-25T07:14:54;100558.63;;;5.42;46.18
45040;BME280;30778;53.574;7.770;2024-03-25T07:17:22;100561.19;;;5.44;46.09
45040;BME280;30778;53.574;7.770;2024-03-25T07:19:48;100556.88;;;5.43;45.53
45040;BME280;30778;53.574;7.770;2024-03-25T07:22:13;100544.63;;;6.17;44.04
45040;BME280;30778;53.574;7.770;2024-03-25T07:24:42;100544.59;;;7.92;41.70
45040;BME280;30778;53.574;7.770;2024-03-25T07:27:07;100544.88;;;8.09;39.85
45040;BME280;30778;53.574;7.770;2024-03-25T07:29:35;100545.63;;;8.85;39.15
45040;BME280;30778;53.574;7.770;2024-03-25T07:32:00;100548.19;;;9.73;37.59
45040;BME280;30778;53.574;7.770;2024-03-25T07:34:26;100553.28;;;10.38;35.26
45040;BME280;30778;53.574;7.770;2024-03-25T07:36:52;100554.69;;;9.63;36.07
45040;BME280;30778;53.574;7.770;2024-03-25T07:39:17;100559.13;;;8.71;37.83
45040;BME280;30778;53.574;7.770;2024-03-25T07:41:43;100559.47;;;9.74;37.21
45040;BME280;30778;53.574;7.770;2024-03-25T07:44:08;100553.38;;;10.16;36.20
45040;BME280;30778;53.574;7.770;2024-03-25T07:46:34;100553.97;;;10.62;34.99
45040;BME280;30778;53.574;7.770;2024-03-25T07:49:02;100546.66;;;10.89;35.85
45040;BME280;30778;53.574;7.770;2024-03-25T07:51:28;100544.03;;;10.31;35.18
45040;BME280;30778;53.574;7.770;2024-03-25T07:53:53;100542.13;;;9.52;35.93
45040;BME280;30778;53.574;7.770;2024-03-25T07:56:20;100545.09;;;10.27;33.33
45040;BME280;30778;53.574;7.770;2024-03-25T07:58:46;100542.84;;;10.38;33.12
45040;BME280;30778;53.574;7.770;2024-03-25T08:01:11;100547.81;;;12.75;31.12
45040;BME280;30778;53.574;7.770;2024-03-25T08:03:37;100553.59;;;14.49;28.80
45040;BME280;30778;53.574;7.770;2024-03-25T08:06:03;100541.59;;;15.55;26.35
45040;BME280;30778;53.574;7.770;2024-03-25T08:08:28;100549.97;;;15.74;26.26
45040;BME280;30778;53.574;7.770;2024-03-25T08:10:54;100548.22;;;16.26;26.45
45040;BME280;30778;53.574;7.770;2024-03-25T08:13:21;100553.63;;;13.90;27.47
45040;BME280;30778;53.574;7.770;2024-03-25T08:15:46;100552.88;;;13.88;28.29
45040;BME280;30778;53.574;7.770;2024-03-25T08:18:12;100566.41;;;11.50;31.92
45040;BME280;30778;53.574;7.770;2024-03-25T08:20:38;100566.03;;;11.40;33.06
45040;BME280;30778;53.574;7.770;2024-03-25T08:23:04;100562.75;;;12.24;30.91
45040;BME280;30778;53.574;7.770;2024-03-25T08:25:30;100562.97;;;13.02;30.47
45040;BME280;30778;53.574;7.770;2024-03-25T08:27:57;100557.75;;;12.19;30.98
45040;BME280;30778;53.574;7.770;2024-03-25T08:30:22;100559.34;;;11.16;32.93
45040;BME280;30778;53.574;7.770;2024-03-25T08:32:48;100554.97;;;13.05;30.77
45040;BME280;30778;53.574;7.770;2024-03-25T08:35:14;100549.22;;;14.05;28.77
45040;BME280;30778;53.574;7.770;2024-03-25T08:37:39;100556.09;;;15.35;27.61
45040;BME280;30778;53.574;7.770;2024-03-25T08:40:05;100553.84;;;15.14;26.80
45040;BME280;30778;53.574;7.770;2024-03-25T08:42:31;100557.19;;;15.04;27.25
45040;BME280;30778;53.574;7.770;2024-03-25T08:44:56;100551.41;;;14.84;26.78
45040;BME280;30778;53.574;7.770;2024-03-25T08:47:29;100544.13;;;15.02;27.00
45040;BME280;30778;53.574;7.770;2024-03-25T08:49:55;100553.22;;;14.55;27.94
45040;BME280;30778;53.574;7.770;2024-03-25T08:52:22;100567.59;;;14.49;27.43
45040;BME280;30778;53.574;7.770;2024-03-25T08:54:49;100566.66;;;13.91;28.33
45040;BME280;30778;53.574;7.770;2024-03-25T08:57:14;100570.22;;;14.64;25.98
45040;BME280;30778;53.574;7.770;2024-03-25T08:59:40;100567.47;;;12.84;28.56
45040;BME280;30778;53.574;7.770;2024-03-25T09:02:06;100568.97;;;10.77;30.72
45040;BME280;30778;53.574;7.770;2024-03-25T09:04:33;100576.25;;;11.09;30.72
45040;BME280;30778;53.574;7.770;2024-03-25T09:06:58;100569.84;;;10.57;31.22
45040;BME280;30778;53.574;7.770;2024-03-25T09:09:24;100571.72;;;9.94;32.61
45040;BME280;30778;53.574;7.770;2024-03-25T09:12:08;100576.53;;;9.83;32.98
45040;BME280;30778;53.574;7.770;2024-03-25T09:14:33;100576.44;;;9.42;33.86
45040;BME280;30778;53.574;7.770;2024-03-25T09:16:59;100584.22;;;8.97;34.30
45040;BME280;30778;53.574;7.770;2024-03-25T09:19:25;100582.16;;;8.84;34.00
45040;BME280;30778;53.574;7.770;2024-03-25T09:21:51;100590.41;;;8.46;34.83
45040;BME280;30778;53.574;7.770;2024-03-25T09:24:16;100579.91;;;7.99;34.97
45040;BME280;30778;53.574;7.770;2024-03-25T09:26:43;100590.31;;;7.99;34.55
45040;BME280;30778;53.574;7.770;2024-03-25T09:29:12;100589.03;;;7.86;35.26
45040;BME280;30778;53.574;7.770;2024-03-25T09:31:38;100587.75;;;7.98;35.61
45040;BME280;30778;53.574;7.770;2024-03-25T09:34:04;100591.44;;;7.65;35.05
45040;BME280;30778;53.574;7.770;2024-03-25T09:36:29;100590.38;;;7.98;35.72
45040;BME280;30778;53.574;7.770;2024-03-25T09:38:55;100590.13;;;8.05;34.97
45040;BME280;30778;53.574;7.770;2024-03-25T09:41:20;100602.13;;;7.56;35.44
45040;BME280;30778;53.574;7.770;2024-03-25T09:43:54;100597.19;;;7.47;36.35
45040;BME280;30778;53.574;7.770;2024-03-25T09:46:21;100593.63;;;7.78;35.99
45040;BME280;30778;53.574;7.770;2024-03-25T09:48:48;100593.97;;;7.39;37.19
45040;BME280;30778;53.574;7.770;2024-03-25T09:51:14;100590.97;;;6.95;37.94
45040;BME280;30778;53.574;7.770;2024-03-25T09:53:40;100600.41;;;6.67;38.45
45040;BME280;30778;53.574;7.770;2024-03-25T09:56:06;100595.44;;;7.19;37.78
45040;BME280;30778;53.574;7.770;2024-03-25T09:58:32;100593.38;;;7.85;37.36
45040;BME280;30778;53.574;7.770;2024-03-25T10:00:59;100594.53;;;7.77;37.51
45040;BME280;30778;53.574;7.770;2024-03-25T10:03:25;100591.50;;;8.15;36.44
45040;BME280;30778;53.574;7.770;2024-03-25T10:05:50;100592.59;;;8.08;36.06
45040;BME280;30778;53.574;7.770;2024-03-25T10:08:22;100593.69;;;8.28;35.04
45040;BME280;30778;53.574;7.770;2024-03-25T10:10:47;100585.81;;;8.78;35.19
45040;BME280;30778;53.574;7.770;2024-03-25T10:13:13;100588.06;;;9.11;34.47
45040;BME280;30778;53.574;7.770;2024-03-25T10:15:38;100586.03;;;9.19;35.08
45040;BME280;30778;53.574;7.770;2024-03-25T10:18:04;100594.13;;;9.11;34.69
45040;BME280;30778;53.574;7.770;2024-03-25T10:20:29;100593.44;;;9.30;35.10
45040;BME280;30778;53.574;7.770;2024-03-25T10:22:55;100594.97;;;8.90;35.42
45040;BME280;30778;53.574;7.770;2024-03-25T10:25:26;100599.84;;;9.65;33.61
45040;BME280;30778;53.574;7.770;2024-03-25T10:27:58;100592.75;;;9.91;33.87
45040;BME280;30778;53.574;7.770;2024-03-25T10:30:26;100596.66;;;10.01;33.60
45040;BME280;30778;53.574;7.770;2024-03-25T10:32:59;100600.63;;;9.67;32.75
45040;BME280;30778;53.574;7.770;2024-03-25T10:35:29;100600.59;;;9.47;32.94
45040;BME280;30778;53.574;7.770;2024-03-25T10:37:58;100600.56;;;9.69;33.18
45040;BME280;30778;53.574;7.770;2024-03-25T10:40:30;100606.31;;;9.34;33.71
45040;BME280;30778;53.574;7.770;2024-03-25T10:43:05;100601.78;;;9.38;33.88
45040;BME280;30778;53.574;7.770;2024-03-25T10:45:40;100595.59;;;8.96;34.57
45040;BME280;30778;53.574;7.770;2024-03-25T10:48:28;100606.44;;;8.61;35.55
45040;BME280;30778;53.574;7.770;2024-03-25T10:50:55;100609.22;;;8.04;36.20
45040;BME280;30778;53.574;7.770;2024-03-25T10:53:21;100606.06;;;8.21;36.04
45040;BME280;30778;53.574;7.770;2024-03-25T10:55:50;100613.44;;;7.82;37.02
45040;BME280;30778;53.574;7.770;2024-03-25T10:58:16;100618.09;;;7.16;40.69
45040;BME280;30778;53.574;7.770;2024-03-25T11:00:43;100623.06;;;6.94;42.66
45040;BME280;30778;53.574;7.770;2024-03-25T11:03:10;100624.00;;;6.91;42.98
45040;BME280;30778;53.574;7.770;2024-03-25T11:05:36;100621.41;;;6.91;44.42
45040;BME280;30778;53.574;7.770;2024-03-25T11:08:12;100614.44;;;6.91;44.61
45040;BME280;30778;53.574;7.770;2024-03-25T11:10:43;100613.09;;;6.78;45.19
45040;BME280;30778;53.574;7.770;2024-03-25T11:13:13;100614.38;;;7.51;44.58
45040;BME280;30778;53.574;7.770;2024-03-25T11:15:48;100606.25;;;8.15;44.27
45040;BME280;30778;53.574;7.770;2024-03-25T11:18:17;100601.06;;;9.56;41.53
45040;BME280;30778;53.574;7.770;2024-03-25T11:20:44;100591.47;;;10.21;38.24
45040;BME280;30778;53.574;7.770;2024-03-25T11:23:14;100587.72;;;9.64;39.98
45040;BME280;30778;53.574;7.770;2024-03-25T11:25:41;100590.81;;;10.56;37.53
45040;BME280;30778;53.574;7.770;2024-03-25T11:28:08;100587.28;;;10.96;36.58
45040;BME280;30778;53.574;7.770;2024-03-25T11:30:36;100588.63;;;10.66;35.17
45040;BME280;30778;53.574;7.770;2024-03-25T11:33:02;100583.50;;;10.04;37.08
45040;BME280;30778;53.574;7.770;2024-03-25T11:35:37;100580.94;;;11.02;36.88
45040;BME280;30778;53.574;7.770;2024-03-25T11:38:02;100578.50;;;10.18;36.27
45040;BME280;30778;53.574;7.770;2024-03-25T11:40:28;100573.88;;;10.64;36.56
45040;BME280;30778;53.574;7.770;2024-03-25T11:42:54;100568.66;;;10.64;37.66
45040;BME280;30778;53.574;7.770;2024-03-25T11:45:20;100576.88;;;10.36;37.22
45040;BME280;30778;53.574;7.770;2024-03-25T11:47:48;100573.38;;;10.17;36.63
45040;BME280;30778;53.574;7.770;2024-03-25T11:50:18;100565.41;;;10.20;36.41
45040;BME280;30778;53.574;7.770;2024-03-25T11:52:44;100566.72;;;9.67;36.19
45040;BME280;30778;53.574;7.770;2024-03-25T11:55:10;100563.09;;;10.12;36.33
45040;BME280;30778;53.574;7.770;2024-03-25T11:57:40;100556.69;;;10.40;37.26
45040;BME280;30778;53.574;7.770;2024-03-25T12:00:07;100559.09;;;10.63;35.65
45040;BME280;30778;53.574;7.770;2024-03-25T12:02:44;100543.00;;;10.14;34.44
45040;BME280;30778;53.574;7.770;2024-03-25T12:05:12;100544.66;;;9.74;36.00
45040;BME280;30778;53.574;7.770;2024-03-25T12:07:38;100544.66;;;9.32;34.61
45040;BME280;30778;53.574;7.770;2024-03-25T12:10:04;100536.97;;;9.71;35.70
45040;BME280;30778;53.574;7.770;2024-03-25T12:12:48;100546.38;;;10.75;34.95
45040;BME280;30778;53.574;7.770;2024-03-25T12:15:22;100536.28;;;11.24;33.00
45040;BME280;30778;53.574;7.770;2024-03-25T12:17:51;100525.91;;;10.47;35.02
45040;BME280;30778;53.574;7.770;2024-03-25T12:20:16;100531.31;;;10.23;34.52
45040;BME280;30778;53.574;7.770;2024-03-25T12:22:43;100538.34;;;8.93;36.01
45040;BME280;30778;53.574;7.770;2024-03-25T12:25:08;100537.97;;;9.03;36.05
45040;BME280;30778;53.574;7.770;2024-03-25T12:27:37;100540.41;;;9.07;36.76
45040;BME280;30778;53.574;7.770;2024-03-25T12:30:06;100531.69;;;9.30;34.43
45040;BME280;30778;53.574;7.770;2024-03-25T12:32:38;100528.25;;;9.72;34.81
45040;BME280;30778;53.574;7.770;2024-03-25T12:35:11;100534.84;;;8.94;35.90
45040;BME280;30778;53.574;7.770;2024-03-25T12:37:38;100530.09;;;10.11;35.49
45040;BME280;30778;53.574;7.770;2024-03-25T12:40:05;100530.28;;;9.00;35.02
45040;BME280;30778;53.574;7.770;2024-03-25T12:42:32;100533.34;;;8.64;36.13
45040;BME280;30778;53.574;7.770;2024-03-25T12:44:58;100536.66;;;8.92;35.67
45040;BME280;30778;53.574;7.770;2024-03-25T12:47:23;100528.81;;;9.36;35.11
45040;BME280;30778;53.574;7.770;2024-03-25T12:49:49;100524.28;;;8.97;35.23
45040;BME280;30778;53.574;7.770;2024-03-25T12:52:14;100526.25;;;9.57;36.65
45040;BME280;30778;53.574;7.770;2024-03-25T12:54:40;100520.84;;;9.62;36.01